createdAt,value
2022-09-24T00:03:52.403Z,0
2022-09-24T00:10:12.382Z,0
2022-09-24T00:16:35.446Z,0
2022-09-24T00:22:55.375Z,0
2022-09-24T00:29:18.447Z,0
2022-09-24T00:35:38.489Z,0
2022-09-24T00:42:01.441Z,0
2022-09-24T00:48:21.368Z,0
2022-09-24T00:54:44.423Z,0
2022-09-24T01:01:04.451Z,0
2022-09-24T01:07:27.319Z,0
2022-09-24T01:13:47.428Z,0
2022-09-24T01:20:10.373Z,0
2022-09-24T01:26:30.385Z,0
2022-09-24T01:32:53.377Z,0
2022-09-24T01:39:13.453Z,0
2022-09-24T01:45:36.580Z,0
2022-09-24T01:51:56.401Z,0
2022-09-24T01:58:19.333Z,0
2022-09-24T02:04:39.424Z,0
2022-09-24T02:11:02.388Z,0
2022-09-24T02:17:22.354Z,0
2022-09-24T02:23:45.373Z,0
2022-09-24T02:30:05.390Z,0
2022-09-24T02:36:28.358Z,0
2022-09-24T02:42:48.349Z,0
2022-09-24T02:49:11.528Z,0
2022-09-24T02:55:31.371Z,0
2022-09-24T03:01:54.531Z,0
2022-09-24T03:08:14.455Z,0
2022-09-24T03:14:37.499Z,0
2022-09-24T03:31:03.301Z,0
2022-09-24T03:37:23.318Z,0
2022-09-24T03:43:46.346Z,0
2022-09-24T03:50:06.344Z,0
2022-09-24T03:56:29.311Z,0
2022-09-24T04:02:49.375Z,0
2022-09-24T04:09:12.367Z,0
2022-09-24T04:15:32.388Z,0
2022-09-24T04:21:55.310Z,0
2022-09-24T04:28:15.431Z,0
2022-09-24T04:34:38.407Z,0
2022-09-24T04:40:58.506Z,0
2022-09-24T04:47:21.396Z,0
2022-09-24T04:53:41.333Z,0
2022-09-24T05:00:04.402Z,1
2022-09-24T05:06:24.389Z,4
2022-09-24T05:12:47.355Z,13
2022-09-24T05:19:07.396Z,28
2022-09-24T05:25:30.351Z,53
2022-09-24T05:31:50.423Z,89
2022-09-24T05:38:13.353Z,137
2022-09-24T05:44:33.362Z,198
2022-09-24T05:50:56.349Z,244
2022-09-24T05:57:16.311Z,274
2022-09-24T06:03:39.494Z,290
2022-09-24T06:09:59.440Z,339
2022-09-24T06:16:22.538Z,424
2022-09-24T06:22:42.486Z,476
2022-09-24T06:29:05.571Z,522
2022-09-24T06:35:25.411Z,579
2022-09-24T06:41:48.366Z,665
2022-09-24T06:48:08.318Z,784
2022-09-24T06:54:31.378Z,873
2022-09-24T07:00:51.465Z,1021
2022-09-24T07:07:14.417Z,1256
2022-09-24T07:13:34.336Z,1544
2022-09-24T07:19:57.369Z,1786
2022-09-24T07:26:17.365Z,2044
2022-09-24T07:32:40.333Z,2309
2022-09-24T07:39:00.403Z,2376
2022-09-24T07:45:23.370Z,2209
2022-09-24T07:51:43.321Z,2143
2022-09-24T07:58:06.397Z,2171
2022-09-24T08:04:26.320Z,2098
2022-09-24T08:10:49.355Z,2164
2022-09-24T08:17:09.361Z,2118
2022-09-24T08:23:32.325Z,2068
2022-09-24T08:29:52.370Z,2161
2022-09-24T08:36:15.395Z,2074
2022-09-24T08:58:45.912Z,2511
2022-09-24T09:05:05.319Z,3138
2022-09-24T09:11:28.407Z,3644
2022-09-24T09:17:48.356Z,3742
2022-09-24T09:24:11.337Z,3468
2022-09-24T09:30:31.313Z,3046
2022-09-24T09:36:54.361Z,2960
2022-09-24T09:43:14.342Z,3695
2022-09-24T09:49:37.344Z,3545
2022-09-24T09:55:57.611Z,4111
2022-09-24T10:02:20.405Z,3660
2022-09-24T10:08:40.355Z,2855
2022-09-24T10:15:03.345Z,3022
2022-09-24T10:21:27.518Z,3596
2022-09-24T10:27:46.347Z,2884
2022-09-24T10:34:06.362Z,3277
2022-09-24T10:40:29.420Z,3952
2022-09-24T10:46:49.424Z,4205
2022-09-24T10:53:12.703Z,3558
2022-09-24T10:59:32.324Z,2728
2022-09-24T11:05:55.386Z,3110
2022-09-24T11:12:15.437Z,3174
2022-09-24T11:18:38.337Z,2964
2022-09-24T11:24:58.318Z,2414
2022-09-24T11:31:21.468Z,2049
2022-09-24T11:37:41.369Z,2134
2022-09-24T11:44:04.310Z,2205
2022-09-24T11:50:24.442Z,2082
2022-09-24T11:56:47.342Z,2148
2022-09-24T12:03:07.561Z,2071
2022-09-24T12:09:30.341Z,2117
2022-09-24T12:15:50.411Z,1813
2022-09-24T12:22:13.374Z,1808
2022-09-24T12:28:33.351Z,1900
2022-09-24T12:34:56.373Z,2274
2022-09-24T12:41:16.332Z,2319
2022-09-24T12:47:39.355Z,2026
2022-09-24T12:53:59.359Z,1911
2022-09-24T13:00:22.360Z,1919
2022-09-24T13:06:43.574Z,1709
2022-09-24T13:13:06.321Z,1858
2022-09-24T13:19:26.359Z,1944
2022-09-24T13:25:49.400Z,1543
2022-09-24T13:32:09.331Z,1482
2022-09-24T13:38:32.382Z,1906
2022-09-24T13:44:52.450Z,2391
2022-09-24T13:51:15.334Z,2354
2022-09-24T13:57:35.328Z,2184
2022-09-24T14:03:58.347Z,1829
2022-09-24T14:27:22.454Z,890
2022-09-24T14:33:42.349Z,764
2022-09-24T14:40:05.375Z,723
2022-09-24T14:46:25.442Z,582
2022-09-24T14:52:48.348Z,512
2022-09-24T14:59:08.410Z,588
2022-09-24T15:05:31.466Z,502
2022-09-24T15:11:51.402Z,504
2022-09-24T15:18:14.345Z,440
2022-09-24T15:24:34.444Z,591
2022-09-24T15:30:57.441Z,698
2022-09-24T15:37:17.339Z,640
2022-09-24T15:43:40.455Z,509
2022-09-24T15:50:00.386Z,425
2022-09-24T15:56:23.334Z,451
2022-09-24T16:02:43.501Z,430
2022-09-24T16:09:06.322Z,331
2022-09-24T16:15:26.359Z,251
2022-09-24T16:21:49.356Z,181
2022-09-24T16:28:09.326Z,180
2022-09-24T16:34:32.409Z,180
2022-09-24T16:40:52.493Z,167
2022-09-24T16:47:15.368Z,168
2022-09-24T16:53:35.349Z,146
2022-09-24T16:59:58.366Z,91
2022-09-24T17:06:18.354Z,64
2022-09-24T17:12:41.326Z,42
2022-09-24T17:19:01.575Z,21
2022-09-24T17:25:24.331Z,13
2022-09-24T17:31:44.429Z,5
2022-09-24T17:38:07.456Z,2
2022-09-24T17:44:27.331Z,1
2022-09-24T17:50:50.359Z,0
2022-09-24T17:57:10.331Z,0
2022-09-24T18:03:33.322Z,0
2022-09-24T18:09:53.329Z,0
2022-09-24T18:16:16.409Z,0
2022-09-24T18:22:36.351Z,0
2022-09-24T18:28:59.322Z,0
2022-09-24T18:35:19.490Z,0
2022-09-24T18:41:42.597Z,0
2022-09-24T18:48:02.317Z,0
2022-09-24T18:54:25.509Z,0
2022-09-24T19:00:45.337Z,0
2022-09-24T19:07:08.406Z,0
2022-09-24T19:13:28.340Z,0
2022-09-24T19:19:52.511Z,0
2022-09-24T19:26:12.442Z,0
2022-09-24T19:49:36.356Z,0
2022-09-24T19:55:59.304Z,0
2022-09-24T20:02:19.524Z,0
2022-09-24T20:08:42.358Z,0
2022-09-24T20:15:02.321Z,0
2022-09-24T20:21:25.332Z,0
2022-09-24T20:27:45.435Z,0
2022-09-24T20:34:08.384Z,0
2022-09-24T20:40:28.378Z,0
2022-09-24T20:46:51.415Z,0
2022-09-24T20:53:11.342Z,0
2022-09-24T20:59:34.323Z,0
2022-09-24T21:05:54.402Z,0
2022-09-24T21:12:17.321Z,0
2022-09-24T21:18:40.015Z,0
2022-09-24T21:25:00.510Z,0
2022-09-24T21:31:20.364Z,0
2022-09-24T21:37:43.387Z,0
2022-09-24T21:44:03.472Z,0
2022-09-24T21:50:26.322Z,0
2022-09-24T21:56:46.374Z,0
2022-09-24T22:21:03.468Z,0
2022-09-24T22:27:23.350Z,0
2022-09-24T22:33:46.363Z,0
2022-09-24T22:40:06.389Z,0
2022-09-24T22:46:29.378Z,0
2022-09-24T22:52:49.376Z,0
2022-09-24T22:59:12.370Z,0
2022-09-24T23:05:32.440Z,0
2022-09-24T23:11:55.315Z,0
2022-09-24T23:18:15.403Z,0
2022-09-24T23:24:38.380Z,0
2022-09-24T23:30:58.384Z,0
2022-09-24T23:37:21.376Z,0
2022-09-24T23:43:41.352Z,0
2022-09-24T23:50:04.399Z,0
2022-09-24T23:56:24.347Z,0
